Time;durP1;ratioP1;P1;durP2;ratioP2;P2;SDS_P1;SDS_P2;PMS_P1;PMS_P2;Temp;Humidity;BMP_temperature;BMP_pressure;BME280_temperature;BME280_humidity;BME280_pressure;Samples;Min_cycle;Max_cycle;Signal;HPM_P1;HPM_P2
2023/06/16 00:01:08;;;;;;;14.60;10.55;;;;;;;18.67;58.38;151973.94;5062838;28;20025;-69
2023/06/16 00:03:34;;;;;;;16.08;10.70;;;;;;;18.75;58.95;151994.53;5062875;28;20210;-70
2023/06/16 00:06:12;;;;;;;14.05;10.90;;;;;;;18.74;59.00;151990.69;5063054;28;20029;-69
2023/06/16 00:08:45;;;;;;;17.17;11.20;;;;;;;18.69;59.03;151979.06;5062860;28;20321;-69
2023/06/16 00:11:11;;;;;;;18.55;10.95;;;;;;;18.64;58.50;151966.19;5062880;28;20060;-69
2023/06/16 00:13:37;;;;;;;16.20;11.88;;;;;;;18.70;58.77;151981.66;5062717;28;20048;-70
2023/06/16 00:16:03;;;;;;;18.05;12.35;;;;;;;18.69;58.91;151977.81;5062896;28;20028;-69
2023/06/16 00:18:29;;;;;;;16.65;12.10;;;;;;;18.71;58.85;151982.94;5061047;28;20043;-70
2023/06/16 00:20:57;;;;;;;17.75;12.85;;;;;;;18.69;59.26;151977.81;5061434;28;20029;-70
2023/06/16 00:23:23;;;;;;;17.23;12.25;;;;;;;18.67;58.82;151973.94;5062652;28;20025;-70
2023/06/16 00:25:50;;;;;;;19.67;13.40;;;;;;;18.63;58.61;151964.88;5062668;28;20071;-69
2023/06/16 00:28:15;;;;;;;23.60;14.55;;;;;;;18.62;58.48;151961.03;5062439;28;20029;-69
2023/06/16 00:30:41;;;;;;;19.58;14.13;;;;;;;18.61;58.63;151958.41;5062738;28;20052;-70
2023/06/16 00:33:06;;;;;;;20.02;14.77;;;;;;;18.60;59.08;151955.88;5062735;28;20088;-70
2023/06/16 00:35:32;;;;;;;21.90;14.52;;;;;;;18.56;58.96;151945.56;5062613;28;20075;-70
2023/06/16 00:37:58;;;;;;;19.83;14.27;;;;;;;18.54;58.77;151940.38;5044768;28;20031;-70
2023/06/16 00:40:23;;;;;;;18.88;14.55;;;;;;;18.55;59.13;151942.97;5062446;28;20032;-70
2023/06/16 00:42:49;;;;;;;21.38;13.95;;;;;;;18.49;59.17;151927.50;5062521;28;20213;-70
2023/06/16 00:45:15;;;;;;;18.08;13.43;;;;;;;18.53;59.22;151937.81;5062334;28;20040;-69
2023/06/16 00:47:41;;;;;;;16.25;13.70;;;;;;;18.52;59.29;151935.22;5060536;28;20067;-69
2023/06/16 00:50:07;;;;;;;19.73;13.73;;;;;;;18.45;59.35;151919.78;5065498;28;20252;-67
2023/06/16 00:52:37;;;;;;;20.75;14.65;;;;;;;18.39;59.65;151904.25;5066109;28;20067;-69
2023/06/16 00:55:03;;;;;;;20.50;15.02;;;;;;;18.50;59.16;151930.03;5064985;28;20086;-68
2023/06/16 00:57:29;;;;;;;18.02;14.65;;;;;;;18.46;59.04;151921.03;5066044;28;20033;-69
2023/06/16 00:59:55;;;;;;;25.15;16.55;;;;;;;18.38;59.25;151900.38;5064958;28;20228;-68
2023/06/16 01:02:21;;;;;;;20.30;15.25;;;;;;;18.42;59.73;151912.00;5065745;28;20044;-69
2023/06/16 01:04:48;;;;;;;21.20;14.65;;;;;;;18.41;60.11;151908.13;5064772;28;20056;-68
2023/06/16 01:07:20;;;;;;;25.13;16.17;;;;;;;18.35;59.71;151893.94;5065721;28;20025;-69
2023/06/16 01:10:03;;;;;;;25.45;15.32;;;;;;;18.38;60.33;151901.66;5065775;28;20364;-69
2023/06/16 01:12:46;;;;;;;25.35;15.40;;;;;;;18.31;60.97;151883.63;5061907;28;20290;-70
2023/06/16 01:15:20;;;;;;;22.45;15.77;;;;;;;18.25;60.15;151868.16;5056190;28;20029;-69
2023/06/16 01:17:47;;;;;;;22.95;15.85;;;;;;;18.32;60.97;151884.94;5065737;28;20016;-68
2023/06/16 01:20:37;;;;;;;21.48;14.75;;;;;;;18.32;60.84;151886.19;5063227;28;20083;-70
2023/06/16 01:23:14;;;;;;;24.20;15.00;;;;;;;18.22;60.38;151860.41;5063734;28;20028;-69
2023/06/16 01:25:42;;;;;;;25.20;16.73;;;;;;;18.27;60.35;151873.28;5065737;28;20113;-69
2023/06/16 01:28:10;;;;;;;23.80;15.48;;;;;;;18.27;60.52;151873.28;5065593;28;20099;-68
2023/06/16 01:30:42;;;;;;;26.77;15.85;;;;;;;18.19;61.51;151852.69;5065255;28;20043;-70
2023/06/16 01:33:09;;;;;;;21.55;14.52;;;;;;;18.11;61.71;151833.31;5065630;28;20024;-71
2023/06/16 01:35:35;;;;;;;24.13;14.40;;;;;;;18.20;61.22;151855.25;5045615;28;20029;-70
2023/06/16 01:38:01;;;;;;;18.77;14.82;;;;;;;18.16;61.58;151844.97;5060833;28;20090;-70
2023/06/16 01:40:28;;;;;;;17.75;14.85;;;;;;;18.17;61.62;151847.50;5064997;28;20029;-69
2023/06/16 01:42:56;;;;;;;21.75;13.57;;;;;;;18.04;62.66;151816.59;5065067;28;20025;-70
2023/06/16 01:45:22;;;;;;;23.98;15.30;;;;;;;18.05;63.07;151817.88;5065017;28;20040;-69
2023/06/16 01:47:48;;;;;;;19.45;13.25;;;;;;;18.05;62.17;151817.88;5064930;28;20048;-67
2023/06/16 01:50:14;;;;;;;20.65;13.95;;;;;;;18.09;62.10;151829.44;5064954;28;20317;-70
2023/06/16 01:52:40;;;;;;;20.92;14.23;;;;;;;18.09;62.55;151829.44;5064874;28;20059;-69
2023/06/16 01:55:06;;;;;;;20.23;14.00;;;;;;;18.13;62.17;151838.50;5063795;28;20036;-69
2023/06/16 01:57:32;;;;;;;23.70;13.23;;;;;;;18.14;63.42;151841.03;5065162;28;20088;-70
2023/06/16 02:00:15;;;;;;;21.73;14.30;;;;;;;18.18;62.80;151850.09;5064267;28;20029;-69
2023/06/16 02:02:48;;;;;;;22.95;14.90;;;;;;;18.12;62.89;151835.91;5065181;28;20041;-69
2023/06/16 02:05:17;;;;;;;21.25;13.30;;;;;;;18.23;62.89;151864.28;5064706;28;20070;-68
2023/06/16 02:07:46;;;;;;;20.95;13.75;;;;;;;18.13;63.25;151837.19;5064648;28;20108;-68
2023/06/16 02:10:12;;;;;;;23.75;13.52;;;;;;;18.21;63.78;151857.81;5064530;28;20078;-69
2023/06/16 02:12:38;;;;;;;18.00;12.27;;;;;;;18.23;63.42;151863.00;5063603;28;20183;-69
2023/06/16 02:15:05;;;;;;;18.08;12.93;;;;;;;18.23;63.24;151863.00;5064553;28;20322;-70
2023/06/16 02:17:31;;;;;;;18.48;13.20;;;;;;;18.22;63.78;151860.41;5064649;28;20033;-68
2023/06/16 02:19:58;;;;;;;22.65;13.43;;;;;;;18.22;63.83;151860.41;5064601;28;20041;-70
2023/06/16 02:22:24;;;;;;;20.17;12.38;;;;;;;18.31;63.92;151883.63;5064125;28;20082;-69
2023/06/16 02:24:49;;;;;;;17.95;12.48;;;;;;;18.43;64.18;151914.59;5064577;28;20377;-68
2023/06/16 02:27:15;;;;;;;20.48;12.32;;;;;;;18.53;63.65;151939.09;5063316;28;20087;-69
2023/06/16 02:29:41;;;;;;;19.15;11.60;;;;;;;18.48;64.00;151926.19;5059938;28;20025;-69
2023/06/16 02:32:07;;;;;;;17.42;12.10;;;;;;;18.53;63.44;151937.81;5057863;28;20104;-68
2023/06/16 02:34:33;;;;;;;18.63;12.52;;;;;;;18.57;63.69;151948.09;5064169;28;20025;-69
2023/06/16 02:37:00;;;;;;;18.45;13.13;;;;;;;18.58;63.19;151952.00;5064197;28;20024;-69
2023/06/16 02:39:26;;;;;;;17.92;11.88;;;;;;;18.63;64.12;151964.88;5063849;28;20134;-69
2023/06/16 02:41:51;;;;;;;16.75;12.38;;;;;;;18.64;63.18;151966.19;5063621;28;20017;-69
2023/06/16 02:44:17;;;;;;;18.65;10.95;;;;;;;18.68;63.31;151975.22;5063814;28;20074;-70
2023/06/16 02:46:42;;;;;;;24.60;13.02;;;;;;;18.70;63.61;151981.66;5063856;28;20037;-69
2023/06/16 02:49:08;;;;;;;18.23;11.52;;;;;;;18.71;63.64;151982.94;5063825;28;20222;-67
2023/06/16 02:51:34;;;;;;;18.23;12.40;;;;;;;18.75;63.51;151994.53;5063895;28;20036;-68
2023/06/16 02:54:00;;;;;;;15.05;10.95;;;;;;;18.77;63.69;151998.44;5064055;28;20032;-68
2023/06/16 02:56:28;;;;;;;17.92;11.63;;;;;;;18.85;63.83;152019.06;5063556;28;20025;-67
2023/06/16 02:58:55;;;;;;;18.27;11.48;;;;;;;18.94;63.19;152041.03;5063679;28;20032;-68
2023/06/16 03:01:21;;;;;;;18.23;11.32;;;;;;;18.96;63.50;152047.50;5063611;28;20096;-68
2023/06/16 03:03:48;;;;;;;18.38;11.48;;;;;;;19.03;63.66;152063.00;5063693;28;20036;-70
2023/06/16 03:06:16;;;;;;;20.58;10.18;;;;;;;19.09;63.18;152079.75;5063595;28;20300;-68
2023/06/16 03:08:42;;;;;;;18.27;10.60;;;;;;;19.14;62.94;152092.69;5063886;28;20297;-67
2023/06/16 03:11:07;;;;;;;15.68;9.65;;;;;;;19.21;62.29;152109.47;5063645;28;20017;-70
2023/06/16 03:13:33;;;;;;;16.98;10.13;;;;;;;19.22;61.78;152112.00;5059016;28;20318;-71
2023/06/16 03:16:00;;;;;;;13.60;9.15;;;;;;;19.26;61.25;152121.06;5046051;28;20027;-70
2023/06/16 03:18:27;;;;;;;18.50;9.88;;;;;;;19.48;60.79;152177.84;5045490;28;20025;-68
2023/06/16 03:20:53;;;;;;;14.50;9.90;;;;;;;19.66;59.29;152221.75;5062026;28;20028;-68
2023/06/16 03:23:19;;;;;;;18.25;10.00;;;;;;;19.99;58.76;152304.41;5063323;28;20317;-68
2023/06/16 03:25:44;;;;;;;15.63;10.63;;;;;;;20.17;58.20;152350.91;5063041;28;20090;-68
2023/06/16 03:28:10;;;;;;;19.75;10.48;;;;;;;20.21;58.08;152358.63;5063188;28;20216;-68
2023/06/16 03:30:35;;;;;;;13.23;9.48;;;;;;;20.25;57.41;152370.28;5062005;28;20029;-68
2023/06/16 03:33:01;;;;;;;13.98;10.25;;;;;;;20.28;57.63;152376.72;5063480;28;20037;-70
2023/06/16 03:35:27;;;;;;;15.10;9.63;;;;;;;20.38;57.19;152401.25;5062929;28;20021;-69
2023/06/16 03:37:52;;;;;;;14.63;9.20;;;;;;;20.46;56.87;152423.19;5061762;28;20052;-71
2023/06/16 03:40:18;;;;;;;12.27;9.13;;;;;;;20.42;56.51;152412.91;5061576;28;20043;-72
2023/06/16 03:42:45;;;;;;;15.50;9.18;;;;;;;20.49;57.38;152429.66;5061744;28;20337;-69
2023/06/16 03:45:11;;;;;;;12.70;9.35;;;;;;;20.53;57.32;152440.00;5063088;28;20088;-68
2023/06/16 03:47:36;;;;;;;17.65;9.20;;;;;;;20.60;57.07;152456.81;5063229;28;20025;-70
2023/06/16 03:50:03;;;;;;;11.70;8.48;;;;;;;20.63;56.10;152464.56;5062349;28;20326;-69
2023/06/16 03:52:28;;;;;;;13.18;9.05;;;;;;;20.74;56.49;152491.75;5062781;28;20037;-68
2023/06/16 03:54:54;;;;;;;14.95;7.90;;;;;;;20.90;55.34;152531.78;5063005;28;20044;-70
2023/06/16 03:57:19;;;;;;;10.75;8.05;;;;;;;21.01;55.16;152560.22;5061897;28;20045;-69
2023/06/16 03:59:45;;;;;;;11.55;8.50;;;;;;;21.01;55.13;152560.22;5063000;28;20028;-69
2023/06/16 04:02:11;;;;;;;13.18;7.43;;;;;;;20.98;55.19;152552.47;5061643;28;20021;-69
2023/06/16 04:04:37;;;;;;;13.95;9.60;;;;;;;21.08;55.58;152576.97;5062996;28;20036;-71
2023/06/16 04:07:03;;;;;;;13.93;9.45;;;;;;;21.15;55.67;152596.41;5062994;28;20029;-69
2023/06/16 04:09:30;;;;;;;19.77;9.30;;;;;;;21.17;55.13;152601.53;5062923;28;20272;-69
2023/06/16 04:11:56;;;;;;;13.27;8.85;;;;;;;21.26;54.74;152622.22;5062735;28;20037;-69
2023/06/16 04:14:22;;;;;;;14.85;9.40;;;;;;;21.31;55.40;152636.44;5062606;28;20047;-69
2023/06/16 04:16:47;;;;;;;11.77;8.30;;;;;;;21.36;55.09;152649.38;5062708;28;20318;-69
2023/06/16 04:19:13;;;;;;;12.48;8.25;;;;;;;21.45;54.83;152671.34;5062963;28;20026;-68
2023/06/16 04:21:41;;;;;;;15.32;8.93;;;;;;;21.48;55.74;152677.81;5062816;28;20068;-73
2023/06/16 04:24:07;;;;;;;12.85;8.02;;;;;;;21.45;54.60;152670.03;5064510;28;20037;-70
2023/06/16 04:26:33;;;;;;;13.35;7.25;;;;;;;21.55;53.63;152697.25;5066445;28;20037;-68
2023/06/16 04:29:03;;;;;;;13.02;8.60;;;;;;;21.53;53.60;152692.09;5066819;28;20025;-70
2023/06/16 04:31:31;;;;;;;12.57;7.70;;;;;;;21.55;53.28;152697.25;5066445;28;20036;-69
2023/06/16 04:33:58;;;;;;;12.85;8.02;;;;;;;21.61;53.08;152711.47;5066425;28;20044;-70
2023/06/16 04:36:29;;;;;;;12.82;8.15;;;;;;;21.57;52.94;152701.13;5048324;28;20025;-68
2023/06/16 04:38:59;;;;;;;11.07;7.40;;;;;;;21.63;53.34;152716.59;5065227;28;20051;-69
2023/06/16 04:41:25;;;;;;;11.98;7.43;;;;;;;21.66;52.71;152723.06;5065722;28;20036;-70
2023/06/16 04:43:51;;;;;;;8.75;7.05;;;;;;;21.70;53.09;152734.69;5066463;28;20024;-70
2023/06/16 04:46:16;;;;;;;9.02;6.57;;;;;;;21.68;52.47;152729.56;5066141;28;20029;-69
2023/06/16 04:48:42;;;;;;;10.32;6.80;;;;;;;21.69;52.00;152730.81;5065045;28;20075;-68
2023/06/16 04:51:08;;;;;;;8.55;6.93;;;;;;;21.64;50.75;152719.22;5064748;28;20052;-69
2023/06/16 04:53:34;;;;;;;9.18;6.75;;;;;;;21.69;49.49;152732.16;5066116;28;20028;-69
2023/06/16 04:55:59;;;;;;;14.23;7.25;;;;;;;21.67;52.86;152725.69;5066032;28;20037;-69
2023/06/16 04:58:25;;;;;;;8.82;6.55;;;;;;;21.63;51.71;152716.59;5065841;28;20029;-70
2023/06/16 05:00:51;;;;;;;9.65;6.80;;;;;;;21.73;51.18;152741.16;5066001;28;20039;-69
2023/06/16 05:03:17;;;;;;;10.63;7.57;;;;;;;21.77;50.99;152751.53;5065846;28;20033;-70
2023/06/16 05:05:43;;;;;;;7.63;6.57;;;;;;;21.86;49.96;152774.81;5065796;28;20028;-69
2023/06/16 05:08:08;;;;;;;7.43;6.43;;;;;;;21.94;49.69;152794.19;5065927;28;20041;-68
2023/06/16 05:10:34;;;;;;;8.13;6.72;;;;;;;21.98;50.45;152803.25;5065259;28;20064;-69
2023/06/16 05:13:00;;;;;;;7.15;6.38;;;;;;;22.11;48.53;152836.84;5065622;28;20051;-70
2023/06/16 05:15:26;;;;;;;11.98;7.05;;;;;;;22.16;49.83;152849.81;5065844;28;20033;-69
2023/06/16 05:17:52;;;;;;;9.77;6.40;;;;;;;22.17;50.15;152851.09;5065527;28;20088;-67
2023/06/16 05:20:17;;;;;;;12.38;7.10;;;;;;;22.35;50.27;152896.41;5065520;28;20025;-70
2023/06/16 05:22:43;;;;;;;9.43;6.63;;;;;;;22.51;49.66;152937.78;5065209;28;20033;-70
2023/06/16 05:25:08;;;;;;;6.97;6.28;;;;;;;22.60;48.42;152958.47;5065387;28;20044;-68
2023/06/16 05:27:34;;;;;;;10.68;6.32;;;;;;;22.77;47.08;153001.16;5065362;28;20024;-69
2023/06/16 05:30:00;;;;;;;7.75;6.68;;;;;;;22.91;46.46;153038.66;5065249;28;20029;-70
2023/06/16 05:32:25;;;;;;;9.60;6.97;;;;;;;23.03;46.97;153068.44;5064933;28;20270;-69
2023/06/16 05:34:52;;;;;;;8.50;7.20;;;;;;;23.05;47.29;153073.59;5064283;28;20032;-69
2023/06/16 05:37:18;;;;;;;10.60;6.80;;;;;;;23.23;47.86;153118.94;5063873;28;20352;-70
2023/06/16 05:39:48;;;;;;;8.55;7.13;;;;;;;23.33;47.43;153142.22;5065113;28;20074;-69
2023/06/16 05:42:15;;;;;;;9.98;6.97;;;;;;;23.43;47.58;153168.13;5064711;28;20067;-69
2023/06/16 05:44:44;;;;;;;8.82;6.30;;;;;;;23.45;46.64;153173.28;5062961;28;20021;-69
2023/06/16 05:47:11;;;;;;;9.95;7.10;;;;;;;23.53;46.31;153194.00;5056560;28;20094;-68
2023/06/16 05:49:37;;;;;;;11.93;7.10;;;;;;;23.69;46.64;153232.84;5064650;28;20237;-69
2023/06/16 05:52:05;;;;;;;9.05;6.63;;;;;;;23.78;44.25;153256.13;5063284;28;20044;-70
2023/06/16 05:54:31;;;;;;;7.90;6.53;;;;;;;23.90;45.18;153287.25;5063567;28;20329;-72
2023/06/16 05:56:57;;;;;;;10.77;7.43;;;;;;;23.93;44.02;153295.00;5064843;28;20084;-68
2023/06/16 05:59:22;;;;;;;7.50;6.00;;;;;;;24.07;44.47;153329.97;5060213;28;20075;-69
2023/06/16 06:01:51;;;;;;;7.18;6.13;;;;;;;24.15;44.21;153349.38;5053739;28;20021;-70
2023/06/16 06:04:20;;;;;;;9.15;7.07;;;;;;;24.30;42.35;153388.22;5064428;28;20097;-71
2023/06/16 06:06:45;;;;;;;7.93;6.63;;;;;;;24.41;43.56;153414.09;5063372;28;20462;-68
2023/06/16 06:09:11;;;;;;;9.93;6.95;;;;;;;24.53;43.18;153445.19;5064409;28;20048;-68
2023/06/16 06:11:36;;;;;;;9.15;6.70;;;;;;;24.56;41.37;153451.69;5064783;28;20037;-70
2023/06/16 06:14:02;;;;;;;11.25;7.00;;;;;;;24.63;42.17;153471.13;5064410;28;20032;-70
2023/06/16 06:16:28;;;;;;;9.98;7.15;;;;;;;24.77;40.23;153504.78;5063610;28;20028;-70
2023/06/16 06:18:53;;;;;;;8.45;7.38;;;;;;;24.90;40.84;153538.50;5064210;28;20232;-69
2023/06/16 06:21:19;;;;;;;6.93;6.22;;;;;;;24.89;40.44;153534.63;5064442;28;20035;-69
2023/06/16 06:23:44;;;;;;;8.75;6.32;;;;;;;25.05;40.03;153574.75;5064525;28;20036;-69
2023/06/16 06:26:10;;;;;;;7.68;5.97;;;;;;;25.01;39.55;153564.41;5063797;28;20317;-70
2023/06/16 06:28:36;;;;;;;7.68;6.63;;;;;;;25.10;39.17;153589.03;5063793;28;20029;-70
2023/06/16 06:31:01;;;;;;;9.00;6.07;;;;;;;25.16;40.99;153603.28;5064018;28;20324;-69
2023/06/16 06:33:27;;;;;;;8.68;6.60;;;;;;;25.26;40.52;153627.88;5064359;28;20029;-70
2023/06/16 06:35:53;;;;;;;6.57;5.35;;;;;;;25.16;37.64;153604.53;5064270;28;20025;-69
2023/06/16 06:38:18;;;;;;;6.78;5.60;;;;;;;25.38;39.01;153657.72;5063896;28;20021;-69
2023/06/16 06:40:44;;;;;;;10.43;6.35;;;;;;;25.40;39.35;153662.94;5063819;28;20039;-68
2023/06/16 06:43:10;;;;;;;7.68;5.78;;;;;;;25.36;36.88;153652.56;5063711;28;20021;-69
2023/06/16 06:45:36;;;;;;;8.27;5.78;;;;;;;25.54;37.83;153699.22;5046222;28;20226;-69
2023/06/16 06:48:01;;;;;;;7.63;6.47;;;;;;;25.62;36.56;153719.91;5063542;28;20033;-70
2023/06/16 06:50:27;;;;;;;8.43;5.72;;;;;;;25.78;37.27;153758.78;5063888;28;20150;-70
2023/06/16 06:52:52;;;;;;;7.47;5.50;;;;;;;25.73;34.59;153747.13;5063399;28;20032;-70
2023/06/16 06:55:18;;;;;;;8.23;6.03;;;;;;;25.87;35.45;153782.13;5063734;28;20244;-70
2023/06/16 06:57:45;;;;;;;7.75;5.15;;;;;;;25.93;35.29;153797.69;5064160;28;20098;-70
2023/06/16 07:00:11;;;;;;;8.27;5.63;;;;;;;25.90;36.66;153788.63;5063960;28;20036;-70
2023/06/16 07:02:37;;;;;;;7.60;6.18;;;;;;;25.90;36.43;153788.63;5063677;28;20029;-71
2023/06/16 07:05:03;;;;;;;6.65;5.50;;;;;;;26.12;36.02;153844.38;5063622;28;20035;-70
2023/06/16 07:07:29;;;;;;;12.38;5.50;;;;;;;26.09;36.40;153836.63;5062076;28;20229;-71
2023/06/16 07:09:55;;;;;;;6.22;5.60;;;;;;;25.99;35.14;153813.22;5063809;28;20039;-70
2023/06/16 07:12:20;;;;;;;8.05;6.03;;;;;;;26.14;35.80;153849.59;5063675;28;20066;-71
2023/06/16 07:14:49;;;;;;;6.22;5.60;;;;;;;26.10;34.54;153839.22;5063673;28;20098;-70
2023/06/16 07:17:15;;;;;;;7.50;5.53;;;;;;;26.16;34.29;153854.78;5063331;28;20032;-70
2023/06/16 07:19:40;;;;;;;9.45;5.50;;;;;;;26.21;34.63;153866.41;5063425;28;20158;-69
2023/06/16 07:22:06;;;;;;;15.65;7.47;;;;;;;26.22;36.82;153870.31;5063496;28;20326;-72
2023/06/16 07:24:32;;;;;;;7.28;5.80;;;;;;;26.18;34.70;153861.25;5063153;28;20037;-72
2023/06/16 07:27:01;;;;;;;6.25;5.65;;;;;;;26.23;34.33;153872.91;5063489;28;20028;-70
2023/06/16 07:29:26;;;;;;;6.55;5.57;;;;;;;26.27;34.52;153882.00;5062047;28;20040;-70
2023/06/16 07:31:52;;;;;;;7.45;5.22;;;;;;;26.30;33.92;153891.06;5063283;28;20032;-71
2023/06/16 07:34:18;;;;;;;9.75;5.80;;;;;;;26.40;35.40;153914.41;5044975;28;20225;-71
2023/06/16 07:36:44;;;;;;;6.35;5.18;;;;;;;26.49;34.53;153937.72;5063118;28;20104;-69
2023/06/16 07:39:10;;;;;;;6.00;5.40;;;;;;;26.47;33.80;153932.56;5062942;28;20029;-72
2023/06/16 07:41:36;;;;;;;6.47;5.32;;;;;;;26.65;33.00;153979.25;5063227;28;20326;-71
2023/06/16 07:44:02;;;;;;;6.20;5.63;;;;;;;26.73;32.62;153998.72;5062801;28;20025;-72
2023/06/16 07:46:28;;;;;;;7.97;5.75;;;;;;;26.74;32.53;154001.34;5063019;28;20032;-70
2023/06/16 07:48:54;;;;;;;7.63;5.80;;;;;;;26.80;32.71;154016.88;5063087;28;20028;-71
2023/06/16 07:51:21;;;;;;;5.32;4.82;;;;;;;26.73;30.55;153998.72;5063250;28;20044;-71
2023/06/16 07:53:48;;;;;;;6.97;5.32;;;;;;;26.81;32.15;154018.22;5062867;28;20025;-71
2023/06/16 07:56:14;;;;;;;7.93;5.60;;;;;;;27.06;33.23;154081.72;5062657;28;20031;-69
2023/06/16 07:58:40;;;;;;;7.30;5.32;;;;;;;27.17;31.92;154108.97;5061582;28;20063;-70
2023/06/16 08:01:06;;;;;;;7.40;5.72;;;;;;;26.97;32.40;154058.41;5066973;28;20317;-70
2023/06/16 08:03:31;;;;;;;9.18;6.28;;;;;;;27.15;32.65;154103.75;5066739;28;20032;-72
2023/06/16 08:05:57;;;;;;;8.23;6.07;;;;;;;26.87;32.79;154035.03;5049215;28;20024;-73
2023/06/16 08:08:27;;;;;;;7.97;6.22;;;;;;;26.41;32.62;153916.97;5065809;28;20041;-73
2023/06/16 08:10:56;;;;;;;7.00;6.35;;;;;;;26.55;32.64;153953.31;5066829;28;20064;-71
2023/06/16 08:13:22;;;;;;;10.07;6.40;;;;;;;26.42;34.24;153919.59;5067258;28;20159;-70
2023/06/16 08:15:47;;;;;;;7.68;6.30;;;;;;;26.44;34.47;153926.06;5067084;28;20029;-72
2023/06/16 08:18:13;;;;;;;6.45;5.85;;;;;;;26.38;34.19;153910.53;5066998;28;20055;-72
2023/06/16 08:20:38;;;;;;;6.55;5.75;;;;;;;26.38;34.92;153910.53;5066859;28;20056;-73
2023/06/16 08:23:04;;;;;;;6.90;6.20;;;;;;;26.32;34.58;153896.28;5067104;28;20221;-73
2023/06/16 08:25:29;;;;;;;8.25;6.28;;;;;;;26.34;35.52;153900.16;5066712;28;20356;-73
2023/06/16 08:27:55;;;;;;;8.45;6.47;;;;;;;26.52;35.30;153946.84;5067126;28;20322;-71
2023/06/16 08:30:20;;;;;;;8.10;6.50;;;;;;;26.55;36.11;153952.00;5066794;28;20041;-74
2023/06/16 08:32:46;;;;;;;6.63;5.93;;;;;;;26.70;36.29;153992.22;5067042;28;20113;-72
2023/06/16 08:35:12;;;;;;;6.97;5.65;;;;;;;26.75;33.42;154003.94;5066632;28;20028;-73
2023/06/16 08:37:38;;;;;;;8.32;5.40;;;;;;;26.96;34.12;154057.06;5066744;28;20028;-73
2023/06/16 08:40:08;;;;;;;8.65;6.10;;;;;;;26.66;31.40;153981.81;5066725;28;20082;-73
2023/06/16 08:42:37;;;;;;;7.25;5.53;;;;;;;27.11;32.45;154093.44;5065484;28;20029;-72
2023/06/16 08:45:06;;;;;;;8.07;6.13;;;;;;;27.38;32.35;154163.50;5066208;28;20020;-71
2023/06/16 08:47:34;;;;;;;6.65;5.82;;;;;;;27.63;32.67;154225.75;5066421;28;20071;-73
2023/06/16 08:50:00;;;;;;;6.38;5.78;;;;;;;27.76;31.31;154258.19;5066280;28;20036;-73
2023/06/16 08:52:29;;;;;;;6.88;5.97;;;;;;;27.70;31.32;154243.91;5066321;28;20021;-69
2023/06/16 08:55:01;;;;;;;6.45;5.80;;;;;;;27.79;31.62;154264.69;5066254;28;20033;-70
2023/06/16 08:57:30;;;;;;;8.63;5.72;;;;;;;27.75;30.76;154254.31;5046150;28;20037;-72
2023/06/16 08:59:58;;;;;;;7.03;6.22;;;;;;;27.41;31.66;154170.00;5062612;28;20029;-72
2023/06/16 09:02:29;;;;;;;8.40;6.10;;;;;;;27.48;31.92;154188.16;5065611;28;20024;-72
2023/06/16 09:04:56;;;;;;;6.72;5.55;;;;;;;27.43;31.76;154175.16;5066166;28;20025;-71
2023/06/16 09:07:27;;;;;;;7.28;6.00;;;;;;;27.09;32.30;154088.22;5065969;28;20055;-71
2023/06/16 09:09:54;;;;;;;6.25;5.65;;;;;;;27.31;32.34;154145.28;5065691;28;20371;-71
2023/06/16 09:12:20;;;;;;;7.53;5.90;;;;;;;27.25;32.83;154128.41;5066394;28;20017;-71
2023/06/16 09:14:49;;;;;;;9.93;5.72;;;;;;;27.09;32.33;154088.22;5066223;28;20033;-71
2023/06/16 09:17:18;;;;;;;5.90;5.20;;;;;;;27.07;33.00;154084.31;5065912;28;20029;-71
2023/06/16 09:19:47;;;;;;;8.52;6.07;;;;;;;26.85;33.35;154028.53;5066215;28;20033;-70
2023/06/16 09:22:16;;;;;;;6.88;5.40;;;;;;;27.00;32.50;154066.19;5065673;28;20348;-71
2023/06/16 09:24:42;;;;;;;6.35;5.60;;;;;;;27.12;33.25;154097.31;5065713;28;20143;-71
2023/06/16 09:27:08;;;;;;;7.13;6.18;;;;;;;27.20;34.06;154118.03;5065807;28;20032;-71
2023/06/16 09:29:33;;;;;;;5.68;5.18;;;;;;;27.43;32.86;154173.88;5064769;28;20036;-71
2023/06/16 09:32:08;;;;;;;5.43;4.90;;;;;;;27.10;29.22;154090.81;5065402;28;20037;-72
2023/06/16 09:34:35;;;;;;;6.85;5.95;;;;;;;27.46;30.07;154182.94;5065366;28;20078;-71
2023/06/16 09:37:03;;;;;;;5.55;5.05;;;;;;;27.67;31.04;154234.88;5064115;28;20040;-72
2023/06/16 09:39:29;;;;;;;8.38;6.07;;;;;;;27.74;30.04;154253.03;5065308;28;20025;-71
2023/06/16 09:41:56;;;;;;;6.70;5.25;;;;;;;27.84;29.02;154277.69;5081190;28;20097;-71
2023/06/16 09:44:25;;;;;;;5.53;5.03;;;;;;;27.66;28.83;154233.59;5065437;28;20029;-71
2023/06/16 09:46:51;;;;;;;6.07;5.53;;;;;;;27.24;29.44;154125.84;5065639;28;20021;-71
2023/06/16 09:49:21;;;;;;;5.63;5.20;;;;;;;27.10;30.08;154090.81;5065263;28;20342;-70
2023/06/16 09:51:50;;;;;;;5.47;4.97;;;;;;;27.14;30.83;154102.47;5065438;28;20041;-70
2023/06/16 09:54:16;;;;;;;6.28;5.28;;;;;;;27.08;30.16;154085.59;5065508;28;20025;-69
2023/06/16 09:56:44;;;;;;;6.10;5.43;;;;;;;27.11;31.14;154093.44;5065143;28;20021;-70
2023/06/16 09:59:10;;;;;;;7.45;5.88;;;;;;;26.94;31.01;154050.63;5065417;28;20029;-70
2023/06/16 10:01:40;;;;;;;9.00;5.30;;;;;;;26.90;31.68;154041.53;5065135;28;20025;-70
2023/06/16 10:04:10;;;;;;;8.85;5.55;;;;;;;26.89;32.61;154037.63;5065361;28;20344;-70
2023/06/16 10:06:48;;;;;;;5.97;4.97;;;;;;;26.73;31.97;153997.44;5065049;28;20033;-71
2023/06/16 10:09:17;;;;;;;6.68;5.60;;;;;;;26.83;31.41;154023.38;5065635;28;20056;-70
2023/06/16 10:11:46;;;;;;;5.38;4.90;;;;;;;26.74;31.04;154001.34;5065015;28;20118;-71
2023/06/16 10:14:13;;;;;;;6.53;5.25;;;;;;;26.92;30.35;154045.41;5063764;28;20029;-72
2023/06/16 10:16:40;;;;;;;6.82;5.60;;;;;;;26.96;30.14;154057.06;5064686;28;20321;-71
2023/06/16 10:19:07;;;;;;;6.88;5.75;;;;;;;27.10;29.74;154090.81;5064751;28;20025;-71
2023/06/16 10:21:33;;;;;;;6.75;5.18;;;;;;;27.11;30.38;154094.72;5062929;28;20061;-72
2023/06/16 10:24:01;;;;;;;12.43;6.22;;;;;;;27.01;31.70;154068.78;5064816;28;20055;-72
2023/06/16 10:26:27;;;;;;;9.15;6.40;;;;;;;27.02;31.99;154072.66;5064741;28;20049;-71
2023/06/16 10:28:54;;;;;;;6.05;5.53;;;;;;;26.89;31.97;154037.63;5064452;28;20058;-69
2023/06/16 10:31:19;;;;;;;8.35;5.90;;;;;;;26.93;32.54;154049.28;5064248;28;20314;-70
2023/06/16 10:33:56;;;;;;;5.78;5.22;;;;;;;26.57;31.53;153958.50;5064769;28;20032;-73
2023/06/16 10:36:33;;;;;;;8.05;5.93;;;;;;;26.80;31.78;154015.59;5064283;28;20096;-73
2023/06/16 10:39:17;;;;;;;9.60;6.18;;;;;;;26.77;32.16;154009.09;5064870;28;20032;-73
2023/06/16 10:41:58;;;;;;;8.18;5.53;;;;;;;26.71;31.53;153993.56;5064374;28;20318;-72
2023/06/16 10:44:29;;;;;;;6.50;5.75;;;;;;;26.91;32.81;154044.13;5059109;28;20044;-73
2023/06/16 10:47:15;;;;;;;6.13;5.53;;;;;;;27.04;32.20;154076.56;5064227;28;20037;-73
2023/06/16 10:49:50;;;;;;;6.03;5.43;;;;;;;27.11;31.28;154093.44;5048831;28;20029;-72
2023/06/16 10:52:32;;;;;;;6.45;4.88;;;;;;;27.24;31.61;154127.13;5064116;28;20311;-73
2023/06/16 10:55:14;;;;;;;7.30;5.32;;;;;;;27.33;32.74;154150.47;5064267;28;20382;-73
2023/06/16 10:57:42;;;;;;;6.60;5.47;;;;;;;27.29;30.77;154140.13;5044328;28;20096;-73
2023/06/16 11:00:11;;;;;;;6.15;5.55;;;;;;;27.48;31.04;154186.88;5061136;28;20037;-72
2023/06/16 11:02:46;;;;;;;7.13;5.75;;;;;;;27.55;31.30;154205.03;5062468;28;20035;-70
2023/06/16 11:05:12;;;;;;;6.18;5.07;;;;;;;27.58;31.32;154212.81;5063298;28;20222;-74
2023/06/16 11:08:06;;;;;;;6.22;5.53;;;;;;;27.64;31.52;154228.38;5063187;28;20040;-71
2023/06/16 11:10:56;;;;;;;7.32;5.78;;;;;;;27.66;30.75;154232.25;5061065;28;20060;-73
2023/06/16 11:13:35;;;;;;;7.13;5.35;;;;;;;27.59;31.42;154215.38;5063053;28;20104;-74
2023/06/16 11:16:02;;;;;;;7.45;5.75;;;;;;;27.43;31.18;154173.88;5061502;28;20076;-74
2023/06/16 11:18:29;;;;;;;9.20;7.75;;;;;;;27.19;30.94;154115.47;5062948;28;20082;-73
2023/06/16 11:20:58;;;;;;;6.90;5.63;;;;;;;27.23;32.28;154124.53;5062736;28;20112;-73